sensor_id;sensor_type;location;lat;lon;timestamp;temperature;humidity
7598;DHT22;3840;59.32098800;18.06423600;2023-10-19T00:00:38;2.40;99.90
7598;DHT22;3840;59.32098800;18.06423600;2023-10-19T00:03:11;2.30;99.90
7598;DHT22;3840;59.32098800;18.06423600;2023-10-19T00:05:38;2.30;99.90
7598;DHT22;3840;59.32098800;18.06423600;2023-10-19T00:08:05;2.40;99.90
7598;DHT22;3840;59.32098800;18.06423600;2023-10-19T00:10:44;2.50;99.90
7598;DHT22;3840;59.32098800;18.06423600;2023-10-19T00:13:11;2.30;99.90
7598;DHT22;3840;59.32098800;18.06423600;2023-10-19T00:15:41;2.50;99.90
7598;DHT22;3840;59.32098800;18.06423600;2023-10-19T00:18:19;2.30;99.90
7598;DHT22;3840;59.32098800;18.06423600;2023-10-19T00:20:48;2.30;99.90
7598;DHT22;3840;59.32098800;18.06423600;2023-10-19T00:23:17;2.30;99.90
7598;DHT22;3840;59.32098800;18.06423600;2023-10-19T00:25:47;2.30;99.90
7598;DHT22;3840;59.32098800;18.06423600;2023-10-19T00:28:20;2.60;99.90
7598;DHT22;3840;59.32098800;18.06423600;2023-10-19T00:30:48;2.50;99.90
7598;DHT22;3840;59.32098800;18.06423600;2023-10-19T00:33:15;2.50;99.90
7598;DHT22;3840;59.32098800;18.06423600;2023-10-19T00:35:46;2.50;99.90
7598;DHT22;3840;59.32098800;18.06423600;2023-10-19T00:38:30;2.40;99.90
7598;DHT22;3840;59.32098800;18.06423600;2023-10-19T00:40:59;2.40;99.90
7598;DHT22;3840;59.32098800;18.06423600;2023-10-19T00:43:31;2.50;99.90
7598;DHT22;3840;59.32098800;18.06423600;2023-10-19T00:46:13;2.40;99.90
7598;DHT22;3840;59.32098800;18.06423600;2023-10-19T00:48:57;2.40;99.90
7598;DHT22;3840;59.32098800;18.06423600;2023-10-19T00:51:31;2.40;99.90
7598;DHT22;3840;59.32098800;18.06423600;2023-10-19T00:54:10;2.30;99.90
7598;DHT22;3840;59.32098800;18.06423600;2023-10-19T00:56:43;2.40;99.90
7598;DHT22;3840;59.32098800;18.06423600;2023-10-19T00:59:18;2.40;99.90
7598;DHT22;3840;59.32098800;18.06423600;2023-10-19T01:01:52;2.70;99.90
7598;DHT22;3840;59.32098800;18.06423600;2023-10-19T01:04:28;2.50;99.90
7598;DHT22;3840;59.32098800;18.06423600;2023-10-19T01:06:59;2.40;99.90
7598;DHT22;3840;59.32098800;18.06423600;2023-10-19T01:09:41;2.50;99.90
7598;DHT22;3840;59.32098800;18.06423600;2023-10-19T01:12:09;2.30;99.90
7598;DHT22;3840;59.32098800;18.06423600;2023-10-19T01:17:41;2.20;99.90
7598;DHT22;3840;59.32098800;18.06423600;2023-10-19T01:20:14;2.10;99.90
7598;DHT22;3840;59.32098800;18.06423600;2023-10-19T01:22:54;2.00;99.90
7598;DHT22;3840;59.32098800;18.06423600;2023-10-19T01:28:12;2.20;99.90
7598;DHT22;3840;59.32098800;18.06423600;2023-10-19T01:30:42;2.30;99.90
7598;DHT22;3840;59.32098800;18.06423600;2023-10-19T01:33:10;2.20;99.90
7598;DHT22;3840;59.32098800;18.06423600;2023-10-19T01:35:41;2.30;99.90
7598;DHT22;3840;59.32098800;18.06423600;2023-10-19T01:38:26;2.30;99.90
7598;DHT22;3840;59.32098800;18.06423600;2023-10-19T01:40:56;2.30;99.90
7598;DHT22;3840;59.32098800;18.06423600;2023-10-19T01:43:25;2.20;99.90
7598;DHT22;3840;59.32098800;18.06423600;2023-10-19T01:46:11;2.20;99.90
7598;DHT22;3840;59.32098800;18.06423600;2023-10-19T01:48:43;2.30;99.90
7598;DHT22;3840;59.32098800;18.06423600;2023-10-19T01:51:11;2.30;99.90
7598;DHT22;3840;59.32098800;18.06423600;2023-10-19T01:53:38;2.20;99.90
7598;DHT22;3840;59.32098800;18.06423600;2023-10-19T01:56:14;2.20;99.90
7598;DHT22;3840;59.32098800;18.06423600;2023-10-19T01:58:42;2.20;99.90
7598;DHT22;3840;59.32098800;18.06423600;2023-10-19T02:01:09;2.10;99.90
7598;DHT22;3840;59.32098800;18.06423600;2023-10-19T02:03:41;2.10;99.90
7598;DHT22;3840;59.32098800;18.06423600;2023-10-19T02:06:08;2.10;99.90
7598;DHT22;3840;59.32098800;18.06423600;2023-10-19T02:11:26;2.10;99.90
7598;DHT22;3840;59.32098800;18.06423600;2023-10-19T02:13:55;2.10;99.90
7598;DHT22;3840;59.32098800;18.06423600;2023-10-19T02:16:26;2.10;99.90
7598;DHT22;3840;59.32098800;18.06423600;2023-10-19T02:18:55;2.10;99.90
7598;DHT22;3840;59.32098800;18.06423600;2023-10-19T02:21:20;2.10;99.90
7598;DHT22;3840;59.32098800;18.06423600;2023-10-19T02:23:53;2.10;99.90
7598;DHT22;3840;59.32098800;18.06423600;2023-10-19T02:26:19;2.00;99.90
7598;DHT22;3840;59.32098800;18.06423600;2023-10-19T02:28:48;2.10;99.90
7598;DHT22;3840;59.32098800;18.06423600;2023-10-19T02:31:17;2.00;99.90
7598;DHT22;3840;59.32098800;18.06423600;2023-10-19T02:33:54;2.10;99.90
7598;DHT22;3840;59.32098800;18.06423600;2023-10-19T02:36:30;2.10;99.90
7598;DHT22;3840;59.32098800;18.06423600;2023-10-19T02:39:00;2.00;99.90
7598;DHT22;3840;59.32098800;18.06423600;2023-10-19T02:41:29;1.90;99.90
7598;DHT22;3840;59.32098800;18.06423600;2023-10-19T02:43:55;1.90;99.90
7598;DHT22;3840;59.32098800;18.06423600;2023-10-19T02:46:49;1.80;99.90
7598;DHT22;3840;59.32098800;18.06423600;2023-10-19T02:49:20;1.80;99.90
7598;DHT22;3840;59.32098800;18.06423600;2023-10-19T02:51:47;1.80;99.90
7598;DHT22;3840;59.32098800;18.06423600;2023-10-19T02:54:15;1.70;99.90
7598;DHT22;3840;59.32098800;18.06423600;2023-10-19T02:56:48;1.70;99.90
7598;DHT22;3840;59.32098800;18.06423600;2023-10-19T02:59:16;1.70;99.90
7598;DHT22;3840;59.32098800;18.06423600;2023-10-19T03:01:46;1.70;99.90
7598;DHT22;3840;59.32098800;18.06423600;2023-10-19T03:04:12;1.70;99.90
7598;DHT22;3840;59.32098800;18.06423600;2023-10-19T03:06:39;1.70;99.90
7598;DHT22;3840;59.32098800;18.06423600;2023-10-19T03:09:07;1.70;99.90
7598;DHT22;3840;59.32098800;18.06423600;2023-10-19T03:11:43;1.60;99.90
7598;DHT22;3840;59.32098800;18.06423600;2023-10-19T03:14:10;1.60;99.90
7598;DHT22;3840;59.32098800;18.06423600;2023-10-19T03:16:39;1.60;99.90
7598;DHT22;3840;59.32098800;18.06423600;2023-10-19T03:19:07;1.60;99.90
7598;DHT22;3840;59.32098800;18.06423600;2023-10-19T03:21:34;1.50;99.90
7598;DHT22;3840;59.32098800;18.06423600;2023-10-19T03:24:10;1.40;99.90
7598;DHT22;3840;59.32098800;18.06423600;2023-10-19T03:26:49;1.40;99.90
7598;DHT22;3840;59.32098800;18.06423600;2023-10-19T03:29:16;1.30;99.90
7598;DHT22;3840;59.32098800;18.06423600;2023-10-19T03:31:47;1.40;99.90
7598;DHT22;3840;59.32098800;18.06423600;2023-10-19T03:34:13;1.50;99.90
7598;DHT22;3840;59.32098800;18.06423600;2023-10-19T03:36:42;1.40;99.90
7598;DHT22;3840;59.32098800;18.06423600;2023-10-19T03:39:07;1.50;99.90
7598;DHT22;3840;59.32098800;18.06423600;2023-10-19T03:41:41;1.60;99.90
7598;DHT22;3840;59.32098800;18.06423600;2023-10-19T03:44:11;1.40;99.90
7598;DHT22;3840;59.32098800;18.06423600;2023-10-19T03:46:51;1.30;99.90
7598;DHT22;3840;59.32098800;18.06423600;2023-10-19T03:49:35;1.20;99.90
7598;DHT22;3840;59.32098800;18.06423600;2023-10-19T03:52:02;1.20;99.90
7598;DHT22;3840;59.32098800;18.06423600;2023-10-19T03:54:34;1.30;99.90
7598;DHT22;3840;59.32098800;18.06423600;2023-10-19T03:57:04;1.20;99.90
7598;DHT22;3840;59.32098800;18.06423600;2023-10-19T03:59:32;1.30;99.90
7598;DHT22;3840;59.32098800;18.06423600;2023-10-19T04:02:03;1.20;99.90
7598;DHT22;3840;59.32098800;18.06423600;2023-10-19T04:04:42;1.40;99.90
7598;DHT22;3840;59.32098800;18.06423600;2023-10-19T04:07:13;1.20;99.90
7598;DHT22;3840;59.32098800;18.06423600;2023-10-19T04:09:53;1.10;99.90
7598;DHT22;3840;59.32098800;18.06423600;2023-10-19T04:12:38;1.10;99.90
7598;DHT22;3840;59.32098800;18.06423600;2023-10-19T04:15:08;1.10;99.90
7598;DHT22;3840;59.32098800;18.06423600;2023-10-19T04:17:42;1.00;99.90
7598;DHT22;3840;59.32098800;18.06423600;2023-10-19T04:20:09;2.00;99.90
7598;DHT22;3840;59.32098800;18.06423600;2023-10-19T04:22:56;1.00;99.90
7598;DHT22;3840;59.32098800;18.06423600;2023-10-19T04:25:32;1.20;99.90
7598;DHT22;3840;59.32098800;18.06423600;2023-10-19T04:27:57;1.30;99.90
7598;DHT22;3840;59.32098800;18.06423600;2023-10-19T04:30:23;1.20;99.90
7598;DHT22;3840;59.32098800;18.06423600;2023-10-19T04:32:53;1.20;99.90
7598;DHT22;3840;59.32098800;18.06423600;2023-10-19T04:35:21;1.20;99.90
7598;DHT22;3840;59.32098800;18.06423600;2023-10-19T04:37:50;1.40;99.90
7598;DHT22;3840;59.32098800;18.06423600;2023-10-19T04:40:18;1.10;99.90
7598;DHT22;3840;59.32098800;18.06423600;2023-10-19T04:42:45;1.40;99.90
7598;DHT22;3840;59.32098800;18.06423600;2023-10-19T04:45:12;1.20;99.90
7598;DHT22;3840;59.32098800;18.06423600;2023-10-19T04:47:39;1.20;99.90
7598;DHT22;3840;59.32098800;18.06423600;2023-10-19T04:50:05;1.10;99.90
7598;DHT22;3840;59.32098800;18.06423600;2023-10-19T04:52:32;1.10;99.90
7598;DHT22;3840;59.32098800;18.06423600;2023-10-19T04:54:59;1.10;99.90
7598;DHT22;3840;59.32098800;18.06423600;2023-10-19T04:57:25;1.00;99.90
7598;DHT22;3840;59.32098800;18.06423600;2023-10-19T04:59:54;1.20;99.90
7598;DHT22;3840;59.32098800;18.06423600;2023-10-19T05:02:20;1.00;99.90
7598;DHT22;3840;59.32098800;18.06423600;2023-10-19T05:04:50;1.20;99.90
7598;DHT22;3840;59.32098800;18.06423600;2023-10-19T05:07:17;1.00;99.90
7598;DHT22;3840;59.32098800;18.06423600;2023-10-19T05:09:44;1.00;99.90
7598;DHT22;3840;59.32098800;18.06423600;2023-10-19T05:12:09;1.10;99.90
7598;DHT22;3840;59.32098800;18.06423600;2023-10-19T05:14:40;1.20;99.90
7598;DHT22;3840;59.32098800;18.06423600;2023-10-19T05:17:07;1.20;99.90
7598;DHT22;3840;59.32098800;18.06423600;2023-10-19T05:19:35;1.10;99.90
7598;DHT22;3840;59.32098800;18.06423600;2023-10-19T05:22:04;1.00;99.90
7598;DHT22;3840;59.32098800;18.06423600;2023-10-19T05:24:30;1.00;99.90
7598;DHT22;3840;59.32098800;18.06423600;2023-10-19T05:26:56;1.00;99.90
7598;DHT22;3840;59.32098800;18.06423600;2023-10-19T05:29:22;1.30;99.90
7598;DHT22;3840;59.32098800;18.06423600;2023-10-19T05:31:50;1.20;99.90
7598;DHT22;3840;59.32098800;18.06423600;2023-10-19T05:34:22;1.20;99.90
7598;DHT22;3840;59.32098800;18.06423600;2023-10-19T05:36:48;1.40;99.90
7598;DHT22;3840;59.32098800;18.06423600;2023-10-19T05:39:18;1.30;99.90
7598;DHT22;3840;59.32098800;18.06423600;2023-10-19T05:41:43;1.20;99.90
7598;DHT22;3840;59.32098800;18.06423600;2023-10-19T05:44:09;1.20;99.90
7598;DHT22;3840;59.32098800;18.06423600;2023-10-19T05:46:35;1.20;99.90
7598;DHT22;3840;59.32098800;18.06423600;2023-10-19T05:49:02;1.40;99.90
7598;DHT22;3840;59.32098800;18.06423600;2023-10-19T05:51:30;1.30;99.90
7598;DHT22;3840;59.32098800;18.06423600;2023-10-19T05:53:56;1.20;99.90
7598;DHT22;3840;59.32098800;18.06423600;2023-10-19T05:56:28;1.10;99.90
7598;DHT22;3840;59.32098800;18.06423600;2023-10-19T05:58:54;1.00;99.90
7598;DHT22;3840;59.32098800;18.06423600;2023-10-19T06:01:20;1.00;99.90
7598;DHT22;3840;59.32098800;18.06423600;2023-10-19T06:03:45;1.00;99.90
7598;DHT22;3840;59.32098800;18.06423600;2023-10-19T06:06:11;1.20;99.90
7598;DHT22;3840;59.32098800;18.06423600;2023-10-19T06:08:39;0.90;99.90
7598;DHT22;3840;59.32098800;18.06423600;2023-10-19T06:11:05;0.90;99.90
7598;DHT22;3840;59.32098800;18.06423600;2023-10-19T06:13:32;1.10;99.90
7598;DHT22;3840;59.32098800;18.06423600;2023-10-19T06:15:58;1.00;99.90
7598;DHT22;3840;59.32098800;18.06423600;2023-10-19T06:18:23;1.10;99.90
7598;DHT22;3840;59.32098800;18.06423600;2023-10-19T06:20:49;1.00;99.90
7598;DHT22;3840;59.32098800;18.06423600;2023-10-19T06:23:17;0.70;99.90
7598;DHT22;3840;59.32098800;18.06423600;2023-10-19T06:25:43;1.30;99.90
7598;DHT22;3840;59.32098800;18.06423600;2023-10-19T06:28:09;1.00;99.90
7598;DHT22;3840;59.32098800;18.06423600;2023-10-19T06:30:36;1.00;99.90
7598;DHT22;3840;59.32098800;18.06423600;2023-10-19T06:33:02;1.10;99.90
7598;DHT22;3840;59.32098800;18.06423600;2023-10-19T06:35:29;1.00;99.90
7598;DHT22;3840;59.32098800;18.06423600;2023-10-19T06:37:57;0.90;99.90
7598;DHT22;3840;59.32098800;18.06423600;2023-10-19T06:40:24;1.20;99.90
7598;DHT22;3840;59.32098800;18.06423600;2023-10-19T06:42:52;1.00;99.90
7598;DHT22;3840;59.32098800;18.06423600;2023-10-19T06:45:21;1.20;99.90
7598;DHT22;3840;59.32098800;18.06423600;2023-10-19T06:47:48;1.20;99.90
7598;DHT22;3840;59.32098800;18.06423600;2023-10-19T06:50:16;1.20;99.90
7598;DHT22;3840;59.32098800;18.06423600;2023-10-19T06:52:45;1.30;99.90
7598;DHT22;3840;59.32098800;18.06423600;2023-10-19T06:55:15;1.20;99.90
7598;DHT22;3840;59.32098800;18.06423600;2023-10-19T06:57:54;1.30;99.90
7598;DHT22;3840;59.32098800;18.06423600;2023-10-19T07:00:25;1.40;99.90
7598;DHT22;3840;59.32098800;18.06423600;2023-10-19T07:02:55;1.40;99.90
7598;DHT22;3840;59.32098800;18.06423600;2023-10-19T07:05:22;1.30;99.90
7598;DHT22;3840;59.32098800;18.06423600;2023-10-19T07:07:49;1.30;99.90
7598;DHT22;3840;59.32098800;18.06423600;2023-10-19T07:10:19;1.40;99.90
7598;DHT22;3840;59.32098800;18.06423600;2023-10-19T07:12:47;1.40;99.90
7598;DHT22;3840;59.32098800;18.06423600;2023-10-19T07:15:13;1.60;99.90
7598;DHT22;3840;59.32098800;18.06423600;2023-10-19T07:17:43;1.60;99.90
7598;DHT22;3840;59.32098800;18.06423600;2023-10-19T07:20:10;1.40;99.90
7598;DHT22;3840;59.32098800;18.06423600;2023-10-19T07:22:58;1.70;99.90
7598;DHT22;3840;59.32098800;18.06423600;2023-10-19T07:25:44;1.70;99.90
7598;DHT22;3840;59.32098800;18.06423600;2023-10-19T07:28:13;1.90;99.90
7598;DHT22;3840;59.32098800;18.06423600;2023-10-19T07:30:42;2.00;99.90
7598;DHT22;3840;59.32098800;18.06423600;2023-10-19T07:33:12;2.10;99.90
7598;DHT22;3840;59.32098800;18.06423600;2023-10-19T07:35:46;1.90;99.90
7598;DHT22;3840;59.32098800;18.06423600;2023-10-19T07:38:16;1.80;99.90
7598;DHT22;3840;59.32098800;18.06423600;2023-10-19T07:40:43;1.90;99.90
7598;DHT22;3840;59.32098800;18.06423600;2023-10-19T07:43:09;1.90;99.90
7598;DHT22;3840;59.32098800;18.06423600;2023-10-19T07:45:36;2.00;99.90
7598;DHT22;3840;59.32098800;18.06423600;2023-10-19T07:48:03;2.10;99.90
7598;DHT22;3840;59.32098800;18.06423600;2023-10-19T07:50:36;2.10;99.90
7598;DHT22;3840;59.32098800;18.06423600;2023-10-19T07:53:04;2.20;99.90
7598;DHT22;3840;59.32098800;18.06423600;2023-10-19T07:55:30;2.30;99.90
7598;DHT22;3840;59.32098800;18.06423600;2023-10-19T07:57:57;2.40;99.90
7598;DHT22;3840;59.32098800;18.06423600;2023-10-19T08:00:26;2.60;99.90
7598;DHT22;3840;59.32098800;18.06423600;2023-10-19T08:02:52;2.50;99.90
7598;DHT22;3840;59.32098800;18.06423600;2023-10-19T08:05:19;2.60;99.90
7598;DHT22;3840;59.32098800;18.06423600;2023-10-19T08:07:46;2.80;99.90
7598;DHT22;3840;59.32098800;18.06423600;2023-10-19T08:10:19;2.70;99.90
7598;DHT22;3840;59.32098800;18.06423600;2023-10-19T08:12:47;2.60;99.90
7598;DHT22;3840;59.32098800;18.06423600;2023-10-19T08:15:13;2.70;99.90
7598;DHT22;3840;59.32098800;18.06423600;2023-10-19T08:17:46;2.50;99.90
7598;DHT22;3840;59.32098800;18.06423600;2023-10-19T08:20:32;2.30;99.90
7598;DHT22;3840;59.32098800;18.06423600;2023-10-19T08:22:59;2.50;99.90
7598;DHT22;3840;59.32098800;18.06423600;2023-10-19T08:25:26;2.50;99.90
7598;DHT22;3840;59.32098800;18.06423600;2023-10-19T08:27:55;2.70;99.90
7598;DHT22;3840;59.32098800;18.06423600;2023-10-19T08:30:24;2.60;99.90
7598;DHT22;3840;59.32098800;18.06423600;2023-10-19T08:32:52;2.70;99.90
7598;DHT22;3840;59.32098800;18.06423600;2023-10-19T08:35:19;2.70;99.90
7598;DHT22;3840;59.32098800;18.06423600;2023-10-19T08:37:55;2.60;99.90
7598;DHT22;3840;59.32098800;18.06423600;2023-10-19T08:40:25;2.70;99.90
7598;DHT22;3840;59.32098800;18.06423600;2023-10-19T08:42:56;2.90;99.90
7598;DHT22;3840;59.32098800;18.06423600;2023-10-19T08:45:22;2.80;99.90
7598;DHT22;3840;59.32098800;18.06423600;2023-10-19T08:48:01;2.60;99.90
7598;DHT22;3840;59.32098800;18.06423600;2023-10-19T08:50:31;2.80;99.90
7598;DHT22;3840;59.32098800;18.06423600;2023-10-19T08:52:58;2.80;99.90
7598;DHT22;3840;59.32098800;18.06423600;2023-10-19T08:55:25;2.90;99.90
7598;DHT22;3840;59.32098800;18.06423600;2023-10-19T08:57:52;2.80;99.90
7598;DHT22;3840;59.32098800;18.06423600;2023-10-19T09:00:19;3.00;99.90
7598;DHT22;3840;59.32098800;18.06423600;2023-10-19T09:02:45;3.00;99.90
7598;DHT22;3840;59.32098800;18.06423600;2023-10-19T09:05:11;3.00;99.90
7598;DHT22;3840;59.32098800;18.06423600;2023-10-19T09:07:52;3.20;99.90
7598;DHT22;3840;59.32098800;18.06423600;2023-10-19T09:10:27;3.30;99.90
7598;DHT22;3840;59.32098800;18.06423600;2023-10-19T09:13:07;3.30;99.90
7598;DHT22;3840;59.32098800;18.06423600;2023-10-19T09:15:39;3.30;99.90
7598;DHT22;3840;59.32098800;18.06423600;2023-10-19T09:18:19;3.10;99.90
7598;DHT22;3840;59.32098800;18.06423600;2023-10-19T09:20:49;3.10;99.90
7598;DHT22;3840;59.32098800;18.06423600;2023-10-19T09:23:20;3.20;99.90
7598;DHT22;3840;59.32098800;18.06423600;2023-10-19T09:25:48;3.20;99.90
7598;DHT22;3840;59.32098800;18.06423600;2023-10-19T09:28:14;3.20;99.90
7598;DHT22;3840;59.32098800;18.06423600;2023-10-19T09:30:41;3.20;99.90
7598;DHT22;3840;59.32098800;18.06423600;2023-10-19T09:33:09;3.30;99.90
7598;DHT22;3840;59.32098800;18.06423600;2023-10-19T09:35:35;3.40;99.90
7598;DHT22;3840;59.32098800;18.06423600;2023-10-19T09:38:03;3.10;99.90
7598;DHT22;3840;59.32098800;18.06423600;2023-10-19T09:40:32;2.90;99.90
7598;DHT22;3840;59.32098800;18.06423600;2023-10-19T09:43:04;3.00;99.90
7598;DHT22;3840;59.32098800;18.06423600;2023-10-19T09:45:37;3.00;99.90
7598;DHT22;3840;59.32098800;18.06423600;2023-10-19T09:48:06;3.10;99.90
7598;DHT22;3840;59.32098800;18.06423600;2023-10-19T09:50:33;2.90;99.90
7598;DHT22;3840;59.32098800;18.06423600;2023-10-19T09:53:01;2.90;99.90
7598;DHT22;3840;59.32098800;18.06423600;2023-10-19T09:55:38;2.80;99.90
7598;DHT22;3840;59.32098800;18.06423600;2023-10-19T09:58:19;2.60;99.90
7598;DHT22;3840;59.32098800;18.06423600;2023-10-19T10:00:47;2.70;99.90
7598;DHT22;3840;59.32098800;18.06423600;2023-10-19T10:06:12;2.60;99.90
7598;DHT22;3840;59.32098800;18.06423600;2023-10-19T10:08:44;2.70;99.90
7598;DHT22;3840;59.32098800;18.06423600;2023-10-19T10:11:20;1.90;99.90
7598;DHT22;3840;59.32098800;18.06423600;2023-10-19T10:13:47;2.70;99.90
7598;DHT22;3840;59.32098800;18.06423600;2023-10-19T10:16:25;2.70;99.90
7598;DHT22;3840;59.32098800;18.06423600;2023-10-19T10:18:55;2.70;99.90
7598;DHT22;3840;59.32098800;18.06423600;2023-10-19T10:21:23;2.80;99.90
7598;DHT22;3840;59.32098800;18.06423600;2023-10-19T10:24:13;2.80;99.90
7598;DHT22;3840;59.32098800;18.06423600;2023-10-19T10:26:59;2.90;99.90
7598;DHT22;3840;59.32098800;18.06423600;2023-10-19T10:29:25;2.80;99.90
7598;DHT22;3840;59.32098800;18.06423600;2023-10-19T10:31:54;2.80;99.90
7598;DHT22;3840;59.32098800;18.06423600;2023-10-19T10:37:15;3.00;99.90
7598;DHT22;3840;59.32098800;18.06423600;2023-10-19T10:39:42;3.10;99.90
7598;DHT22;3840;59.32098800;18.06423600;2023-10-19T10:42:10;3.20;99.90
7598;DHT22;3840;59.32098800;18.06423600;2023-10-19T10:47:07;3.50;99.90
7598;DHT22;3840;59.32098800;18.06423600;2023-10-19T10:49:33;3.60;99.90
7598;DHT22;3840;59.32098800;18.06423600;2023-10-19T10:51:59;3.60;99.90
7598;DHT22;3840;59.32098800;18.06423600;2023-10-19T10:54:25;3.70;99.90
7598;DHT22;3840;59.32098800;18.06423600;2023-10-19T10:56:51;3.80;99.90
7598;DHT22;3840;59.32098800;18.06423600;2023-10-19T10:59:16;3.60;99.90
7598;DHT22;3840;59.32098800;18.06423600;2023-10-19T11:01:43;3.60;99.90
7598;DHT22;3840;59.32098800;18.06423600;2023-10-19T11:04:10;3.70;99.90
7598;DHT22;3840;59.32098800;18.06423600;2023-10-19T11:06:48;3.70;99.90
7598;DHT22;3840;59.32098800;18.06423600;2023-10-19T11:09:14;3.80;99.90
7598;DHT22;3840;59.32098800;18.06423600;2023-10-19T11:11:44;3.90;99.90
7598;DHT22;3840;59.32098800;18.06423600;2023-10-19T11:14:11;3.90;99.90
7598;DHT22;3840;59.32098800;18.06423600;2023-10-19T11:16:37;3.90;99.90
7598;DHT22;3840;59.32098800;18.06423600;2023-10-19T11:19:05;4.00;99.90
7598;DHT22;3840;59.32098800;18.06423600;2023-10-19T11:21:33;4.00;99.90
7598;DHT22;3840;59.32098800;18.06423600;2023-10-19T11:23:59;4.00;99.90
7598;DHT22;3840;59.32098800;18.06423600;2023-10-19T11:26:25;3.90;99.90
7598;DHT22;3840;59.32098800;18.06423600;2023-10-19T11:29:02;3.60;99.90
7598;DHT22;3840;59.32098800;18.06423600;2023-10-19T11:31:30;3.70;99.90
7598;DHT22;3840;59.32098800;18.06423600;2023-10-19T11:34:05;3.60;99.90
7598;DHT22;3840;59.32098800;18.06423600;2023-10-19T11:36:31;3.50;99.90
7598;DHT22;3840;59.32098800;18.06423600;2023-10-19T11:38:56;3.70;99.90
7598;DHT22;3840;59.32098800;18.06423600;2023-10-19T11:41:23;3.50;99.90
7598;DHT22;3840;59.32098800;18.06423600;2023-10-19T11:43:49;3.50;99.90
7598;DHT22;3840;59.32098800;18.06423600;2023-10-19T11:46:16;3.60;99.90
7598;DHT22;3840;59.32098800;18.06423600;2023-10-19T11:48:43;3.60;99.90
7598;DHT22;3840;59.32098800;18.06423600;2023-10-19T11:51:11;3.70;99.90
7598;DHT22;3840;59.32098800;18.06423600;2023-10-19T11:53:37;3.70;99.90
7598;DHT22;3840;59.32098800;18.06423600;2023-10-19T11:56:08;3.80;99.90
7598;DHT22;3840;59.32098800;18.06423600;2023-10-19T11:58:35;3.80;99.90
7598;DHT22;3840;59.32098800;18.06423600;2023-10-19T12:01:03;3.70;99.90
7598;DHT22;3840;59.32098800;18.06423600;2023-10-19T12:03:36;3.80;99.90
7598;DHT22;3840;59.32098800;18.06423600;2023-10-19T12:06:04;3.80;99.90
7598;DHT22;3840;59.32098800;18.06423600;2023-10-19T12:08:32;3.80;99.90
7598;DHT22;3840;59.32098800;18.06423600;2023-10-19T12:10:59;3.80;99.90
7598;DHT22;3840;59.32098800;18.06423600;2023-10-19T12:13:27;3.80;99.90
7598;DHT22;3840;59.32098800;18.06423600;2023-10-19T12:15:53;3.60;99.90
7598;DHT22;3840;59.32098800;18.06423600;2023-10-19T12:18:21;3.50;99.90
7598;DHT22;3840;59.32098800;18.06423600;2023-10-19T12:20:47;3.50;99.90
7598;DHT22;3840;59.32098800;18.06423600;2023-10-19T12:23:14;3.50;99.90
7598;DHT22;3840;59.32098800;18.06423600;2023-10-19T12:25:41;3.50;99.90
7598;DHT22;3840;59.32098800;18.06423600;2023-10-19T12:28:08;3.40;99.90
7598;DHT22;3840;59.32098800;18.06423600;2023-10-19T12:30:38;3.40;99.90
7598;DHT22;3840;59.32098800;18.06423600;2023-10-19T12:33:04;3.50;99.90
7598;DHT22;3840;59.32098800;18.06423600;2023-10-19T12:35:41;3.50;99.90
7598;DHT22;3840;59.32098800;18.06423600;2023-10-19T12:38:24;3.60;99.90
7598;DHT22;3840;59.32098800;18.06423600;2023-10-19T12:40:51;3.70;99.90
7598;DHT22;3840;59.32098800;18.06423600;2023-10-19T12:43:18;3.70;99.90
7598;DHT22;3840;59.32098800;18.06423600;2023-10-19T12:45:57;3.60;99.90
7598;DHT22;3840;59.32098800;18.06423600;2023-10-19T12:48:23;3.40;99.90
7598;DHT22;3840;59.32098800;18.06423600;2023-10-19T12:50:55;3.50;99.90
7598;DHT22;3840;59.32098800;18.06423600;2023-10-19T12:53:21;3.60;99.90
7598;DHT22;3840;59.32098800;18.06423600;2023-10-19T12:55:51;3.70;99.90
7598;DHT22;3840;59.32098800;18.06423600;2023-10-19T12:58:19;3.40;99.90
7598;DHT22;3840;59.32098800;18.06423600;2023-10-19T13:00:46;3.40;99.90
7598;DHT22;3840;59.32098800;18.06423600;2023-10-19T13:03:15;3.50;99.90
7598;DHT22;3840;59.32098800;18.06423600;2023-10-19T13:05:44;3.50;99.90
7598;DHT22;3840;59.32098800;18.06423600;2023-10-19T13:08:11;3.70;99.90
7598;DHT22;3840;59.32098800;18.06423600;2023-10-19T13:10:42;3.30;99.90
7598;DHT22;3840;59.32098800;18.06423600;2023-10-19T13:13:11;3.30;99.90
7598;DHT22;3840;59.32098800;18.06423600;2023-10-19T13:15:44;3.30;99.90
7598;DHT22;3840;59.32098800;18.06423600;2023-10-19T13:18:12;3.20;99.90
7598;DHT22;3840;59.32098800;18.06423600;2023-10-19T13:20:53;3.20;99.90
7598;DHT22;3840;59.32098800;18.06423600;2023-10-19T13:23:20;3.20;99.90
7598;DHT22;3840;59.32098800;18.06423600;2023-10-19T13:25:49;3.30;99.90
7598;DHT22;3840;59.32098800;18.06423600;2023-10-19T13:28:18;3.50;99.90
7598;DHT22;3840;59.32098800;18.06423600;2023-10-19T13:30:50;3.50;99.90
7598;DHT22;3840;59.32098800;18.06423600;2023-10-19T13:33:17;3.40;99.90
7598;DHT22;3840;59.32098800;18.06423600;2023-10-19T13:35:45;3.40;99.90
7598;DHT22;3840;59.32098800;18.06423600;2023-10-19T13:38:11;3.10;99.90
7598;DHT22;3840;59.32098800;18.06423600;2023-10-19T13:40:39;3.10;99.90
7598;DHT22;3840;59.32098800;18.06423600;2023-10-19T13:43:06;3.10;99.90
7598;DHT22;3840;59.32098800;18.06423600;2023-10-19T13:45:34;3.10;99.90
7598;DHT22;3840;59.32098800;18.06423600;2023-10-19T13:48:04;3.20;99.90
7598;DHT22;3840;59.32098800;18.06423600;2023-10-19T13:50:31;3.10;99.90
7598;DHT22;3840;59.32098800;18.06423600;2023-10-19T13:52:58;3.10;99.90
7598;DHT22;3840;59.32098800;18.06423600;2023-10-19T13:55:26;3.10;99.90
7598;DHT22;3840;59.32098800;18.06423600;2023-10-19T13:57:52;3.10;99.90
7598;DHT22;3840;59.32098800;18.06423600;2023-10-19T14:00:20;3.10;99.90
7598;DHT22;3840;59.32098800;18.06423600;2023-10-19T14:02:52;3.10;99.90
7598;DHT22;3840;59.32098800;18.06423600;2023-10-19T14:05:19;3.10;99.90
7598;DHT22;3840;59.32098800;18.06423600;2023-10-19T14:07:46;3.10;99.90
7598;DHT22;3840;59.32098800;18.06423600;2023-10-19T14:10:12;3.20;99.90
7598;DHT22;3840;59.32098800;18.06423600;2023-10-19T14:12:39;3.20;99.90
7598;DHT22;3840;59.32098800;18.06423600;2023-10-19T14:15:14;3.30;99.90
7598;DHT22;3840;59.32098800;18.06423600;2023-10-19T14:17:43;3.20;99.90